Time;durP1;ratioP1;P1;durP2;ratioP2;P2;SDS_P1;SDS_P2;PMS_P1;PMS_P2;Temp;Humidity;BMP_temperature;BMP_pressure;BME280_temperature;BME280_humidity;BME280_pressure;Samples;Min_cycle;Max_cycle;Signal;HPM_P1;HPM_P2
2022/11/17 00:02:24;;;;;;;15.23;8.98;;;8.30;99.90;;;;;;5108050;28;20058;-81
2022/11/17 00:04:50;;;;;;;20.08;10.13;;;8.10;99.90;;;;;;5107792;28;20050;-80
2022/11/17 00:07:16;;;;;;;15.32;9.20;;;8.10;99.90;;;;;;5124253;28;20056;-81
2022/11/17 00:09:41;;;;;;;13.30;8.25;;;9.30;99.90;;;;;;5090499;28;20130;-81
2022/11/17 00:14:51;;;;;;;12.65;8.30;;;8.10;99.90;;;;;;5124660;28;20435;-81
2022/11/17 00:17:17;;;;;;;16.83;8.85;;;8.20;99.90;;;;;;5107695;28;20126;-81
2022/11/17 00:22:30;;;;;;;15.55;8.48;;;8.10;99.90;;;;;;5124388;28;20204;-81
2022/11/17 00:24:55;;;;;;;14.27;8.02;;;7.30;99.90;;;;;;5107117;28;20047;-81
2022/11/17 00:27:21;;;;;;;11.80;8.30;;;8.20;99.90;;;;;;5123804;28;20047;-81
2022/11/17 00:29:46;;;;;;;14.10;9.38;;;8.10;99.90;;;;;;5109168;27;20142;-80
2022/11/17 00:34:58;;;;;;;13.52;8.10;;;8.90;99.90;;;;;;5127866;27;20043;-81
2022/11/17 00:37:25;;;;;;;11.88;7.57;;;8.10;99.90;;;;;;5128283;27;20043;-81
2022/11/17 00:39:50;;;;;;;13.13;7.95;;;8.10;99.90;;;;;;5127954;27;20047;-80
2022/11/17 00:42:16;;;;;;;14.20;8.32;;;8.10;99.90;;;;;;5128174;27;20414;-80
2022/11/17 00:44:42;;;;;;;12.00;7.80;;;8.90;99.90;;;;;;5093608;27;20039;-81
2022/11/17 00:47:07;;;;;;;12.32;7.97;;;8.40;99.90;;;;;;5076779;27;20043;-81
2022/11/17 00:49:33;;;;;;;12.45;7.65;;;8.10;99.90;;;;;;5110557;27;20043;-80
2022/11/17 00:51:59;;;;;;;9.95;7.15;;;8.10;99.90;;;;;;5110571;27;20049;-81
2022/11/17 00:54:24;;;;;;;11.93;7.55;;;8.20;99.90;;;;;;5127462;27;20473;-80
2022/11/17 00:56:51;;;;;;;19.35;8.30;;;8.10;99.90;;;;;;5127867;27;20043;-80
2022/11/17 00:59:16;;;;;;;11.70;7.45;;;8.10;99.90;;;;;;5110783;27;20092;-81
2022/11/17 01:01:43;;;;;;;11.63;7.15;;;8.10;99.90;;;;;;5127429;27;20551;-81
2022/11/17 01:04:12;;;;;;;10.88;7.57;;;8.10;99.90;;;;;;5110602;27;20050;-81
2022/11/17 01:06:39;;;;;;;12.77;7.35;;;8.10;99.90;;;;;;5127600;27;20047;-81
2022/11/17 01:09:15;;;;;;;11.35;7.82;;;8.10;99.90;;;;;;5127764;27;20447;-81
2022/11/17 01:11:42;;;;;;;11.38;7.50;;;8.00;99.90;;;;;;5127361;27;20585;-80
2022/11/17 01:14:12;;;;;;;10.07;7.13;;;8.10;99.90;;;;;;5127642;27;20039;-81
2022/11/17 01:16:38;;;;;;;11.20;7.72;;;8.00;99.90;;;;;;5110611;27;20036;-81
2022/11/17 01:19:04;;;;;;;14.45;8.10;;;8.50;99.90;;;;;;5126906;27;20050;-81
2022/11/17 01:21:31;;;;;;;9.95;6.63;;;8.00;99.90;;;;;;5126700;27;20047;-80
2022/11/17 01:23:59;;;;;;;11.05;7.28;;;8.20;99.90;;;;;;5110278;27;20051;-81
2022/11/17 01:26:27;;;;;;;10.18;7.47;;;8.90;99.90;;;;;;5126907;27;20039;-81
2022/11/17 01:28:54;;;;;;;11.60;7.03;;;7.90;99.90;;;;;;5126737;27;20097;-81
2022/11/17 01:31:22;;;;;;;11.90;7.75;;;8.40;99.90;;;;;;5127027;27;20045;-81
2022/11/17 01:33:48;;;;;;;10.38;7.57;;;7.90;99.90;;;;;;5109582;27;20053;-81
2022/11/17 01:36:17;;;;;;;12.07;8.00;;;7.90;99.90;;;;;;5127038;27;20417;-81
2022/11/17 01:38:43;;;;;;;11.18;6.90;;;7.80;99.90;;;;;;5126487;27;20078;-81
2022/11/17 01:41:16;;;;;;;9.85;7.28;;;8.70;99.90;;;;;;5108591;27;20481;-80
2022/11/17 01:43:45;;;;;;;12.18;7.30;;;7.80;99.90;;;;;;5126733;27;20043;-81
2022/11/17 01:46:31;;;;;;;11.98;8.13;;;7.80;99.90;;;;;;5109312;27;20055;-81
2022/11/17 01:49:17;;;;;;;11.05;8.10;;;7.80;99.90;;;;;;5109225;27;20509;-81
2022/11/17 01:51:49;;;;;;;8.93;7.30;;;7.80;99.90;;;;;;5126263;27;20039;-81
2022/11/17 01:54:19;;;;;;;10.52;7.28;;;7.80;99.90;;;;;;5108885;27;20046;-80
2022/11/17 01:56:47;;;;;;;12.57;7.18;;;8.70;99.90;;;;;;5126066;27;20089;-80
2022/11/17 01:59:29;;;;;;;10.80;6.85;;;7.80;99.90;;;;;;5126157;27;20047;-81
2022/11/17 02:01:55;;;;;;;11.35;7.50;;;7.80;99.90;;;;;;5109051;27;20043;-81
2022/11/17 02:04:32;;;;;;;11.65;6.90;;;7.80;99.90;;;;;;5126062;27;20043;-81
2022/11/17 02:07:14;;;;;;;11.30;7.38;;;8.80;99.90;;;;;;5126641;27;20039;-81
2022/11/17 02:09:41;;;;;;;12.75;5.47;;;7.70;99.90;;;;;;5109024;27;20491;-81
2022/11/17 02:12:13;;;;;;;14.35;7.15;;;7.70;99.90;;;;;;5125930;27;20079;-81
2022/11/17 02:14:39;;;;;;;13.75;8.15;;;7.70;99.90;;;;;;5125616;27;20162;-81
2022/11/17 02:17:08;;;;;;;9.82;6.00;;;7.70;99.90;;;;;;5108622;27;20078;-80
2022/11/17 02:19:39;;;;;;;14.35;7.55;;;7.70;99.90;;;;;;5108433;27;20043;-81
2022/11/17 02:22:07;;;;;;;12.52;8.27;;;7.70;99.90;;;;;;5125889;27;20465;-81
2022/11/17 02:24:50;;;;;;;12.10;6.70;;;8.50;99.90;;;;;;5125970;27;20528;-81
2022/11/17 02:27:40;;;;;;;16.02;8.85;;;7.80;99.90;;;;;;5129706;27;20442;-81
2022/11/17 02:30:10;;;;;;;15.30;8.25;;;7.80;99.90;;;;;;5129389;27;20524;-81
2022/11/17 02:32:42;;;;;;;11.25;7.18;;;7.80;99.90;;;;;;5128714;27;20047;-81
2022/11/17 02:35:49;;;;;;;10.60;6.80;;;7.80;99.90;;;;;;5128840;27;20486;-81
2022/11/17 02:38:14;;;;;;;13.88;7.25;;;7.80;99.90;;;;;;5098129;27;20493;-81
2022/11/17 02:40:47;;;;;;;12.00;6.72;;;8.10;99.90;;;;;;5128790;27;20063;-81
2022/11/17 02:46:18;;;;;;;11.90;6.00;;;7.80;99.90;;;;;;5128652;27;20125;-81
2022/11/17 02:49:00;;;;;;;12.93;7.03;;;7.80;99.90;;;;;;5111315;27;20047;-81
2022/11/17 02:51:26;;;;;;;18.77;7.00;;;7.80;99.90;;;;;;5128414;27;20046;-81
2022/11/17 02:53:55;;;;;;;11.25;7.88;;;7.80;99.90;;;;;;5129223;27;20046;-81
2022/11/17 02:56:21;;;;;;;11.70;7.25;;;7.80;99.90;;;;;;5129014;27;20109;-80
2022/11/17 02:58:52;;;;;;;12.15;7.53;;;7.90;99.90;;;;;;5111215;27;20045;-81
2022/11/17 03:01:50;;;;;;;12.93;8.05;;;7.70;99.90;;;;;;5128073;27;20046;-81
2022/11/17 03:04:25;;;;;;;12.57;8.18;;;7.70;99.90;;;;;;5111762;27;20077;-80
2022/11/17 03:07:08;;;;;;;11.57;7.40;;;7.70;99.90;;;;;;5111351;27;20054;-81
2022/11/17 03:10:00;;;;;;;12.55;7.95;;;7.70;99.90;;;;;;5128589;27;20035;-81
2022/11/17 03:12:50;;;;;;;13.10;8.13;;;8.10;99.90;;;;;;5128537;27;20143;-80
2022/11/17 03:16:11;;;;;;;9.50;7.38;;;7.70;99.90;;;;;;5111692;27;20130;-81
2022/11/17 03:18:55;;;;;;;14.35;8.40;;;7.70;99.90;;;;;;5082893;27;20542;-81
2022/11/17 03:21:39;;;;;;;9.98;7.47;;;7.60;99.90;;;;;;5128065;27;20054;-80
2022/11/17 03:24:17;;;;;;;12.60;8.07;;;7.60;99.90;;;;;;5123644;27;20062;-80
2022/11/17 03:26:58;;;;;;;15.30;8.57;;;7.60;99.90;;;;;;5110746;27;20051;-81
2022/11/17 03:29:27;;;;;;;10.82;7.38;;;7.60;99.90;;;;;;5128353;27;20520;-80
2022/11/17 03:31:57;;;;;;;11.02;8.27;;;7.60;99.90;;;;;;5128090;27;20035;-80
2022/11/17 03:34:27;;;;;;;14.93;7.90;;;7.60;99.90;;;;;;5128282;27;20070;-80
2022/11/17 03:36:59;;;;;;;10.35;7.60;;;7.60;99.90;;;;;;5110506;27;20128;-80
2022/11/17 03:39:35;;;;;;;11.20;8.63;;;7.50;99.90;;;;;;5110789;27;20057;-80
2022/11/17 03:42:13;;;;;;;19.52;8.75;;;7.60;99.90;;;;;;5128243;27;20051;-81
2022/11/17 03:44:43;;;;;;;11.25;7.85;;;7.90;99.90;;;;;;5128278;27;20074;-81
2022/11/17 03:47:12;;;;;;;15.88;8.35;;;8.50;99.90;;;;;;5111329;27;20095;-80
2022/11/17 03:50:07;;;;;;;10.50;8.35;;;7.40;99.90;;;;;;5128145;27;20389;-80
2022/11/17 03:52:34;;;;;;;11.60;7.47;;;7.40;99.90;;;;;;5127931;27;20107;-80
2022/11/17 03:55:01;;;;;;;11.18;8.27;;;7.50;99.90;;;;;;5094177;27;20495;-80
2022/11/17 03:57:49;;;;;;;13.40;8.38;;;7.40;99.90;;;;;;5093793;27;20327;-80
2022/11/17 04:00:17;;;;;;;11.68;8.63;;;7.40;99.90;;;;;;5127832;27;20382;-80
2022/11/17 04:02:45;;;;;;;13.63;8.73;;;7.30;99.90;;;;;;5110565;27;20046;-80
2022/11/17 04:05:12;;;;;;;13.18;8.20;;;7.30;99.90;;;;;;5130947;27;20071;-81
2022/11/17 04:07:40;;;;;;;12.20;8.90;;;7.30;99.90;;;;;;5114521;27;20050;-80
2022/11/17 04:10:11;;;;;;;13.23;8.60;;;7.30;99.90;;;;;;5115073;27;20034;-81
2022/11/17 04:18:22;;;;;;;12.82;8.55;;;7.20;99.90;;;;;;5069444;28;20394;-80
2022/11/17 04:20:50;;;;;;;10.40;8.13;;;7.20;99.90;;;;;;5102065;27;20050;-80
2022/11/17 04:23:16;;;;;;;10.88;7.93;;;7.20;99.90;;;;;;5114833;27;20386;-80
2022/11/17 04:28:35;;;;;;;9.52;8.02;;;7.10;99.90;;;;;;5131159;27;20490;-79
2022/11/17 04:31:11;;;;;;;10.68;8.23;;;7.10;99.90;;;;;;5131526;27;20042;-80
2022/11/17 04:33:39;;;;;;;14.85;8.65;;;7.10;99.90;;;;;;5114308;27;20129;-79
2022/11/17 04:36:06;;;;;;;11.30;6.60;;;7.00;99.90;;;;;;5113934;27;20049;-80
2022/11/17 04:38:32;;;;;;;10.50;8.40;;;7.00;99.90;;;;;;5114135;27;20121;-79
2022/11/17 04:43:48;;;;;;;11.15;8.07;;;7.00;99.90;;;;;;5116616;27;20054;-79
2022/11/17 04:46:15;;;;;;;10.32;8.13;;;7.00;99.90;;;;;;5131074;27;20065;-79
2022/11/17 04:48:41;;;;;;;11.32;8.00;;;7.00;99.90;;;;;;5131033;27;20466;-80
2022/11/17 04:51:07;;;;;;;13.05;7.93;;;7.00;99.90;;;;;;5096939;27;20051;-79
2022/11/17 04:53:32;;;;;;;8.73;7.25;;;8.10;99.90;;;;;;5114097;27;20038;-79
2022/11/17 04:55:59;;;;;;;8.57;7.03;;;7.00;99.90;;;;;;5114046;27;20379;-80
2022/11/17 04:58:25;;;;;;;12.80;7.28;;;7.00;99.90;;;;;;5113332;27;20046;-79
2022/11/17 05:00:51;;;;;;;11.48;8.25;;;7.70;99.90;;;;;;5130812;27;20405;-80
2022/11/17 05:03:17;;;;;;;15.77;7.97;;;6.90;99.90;;;;;;5079458;27;20066;-79
2022/11/17 05:05:47;;;;;;;9.98;7.70;;;6.90;99.90;;;;;;5096142;27;20096;-79
2022/11/17 05:08:13;;;;;;;11.15;7.72;;;7.90;99.90;;;;;;5130412;27;20046;-80
2022/11/17 05:13:25;;;;;;;10.50;7.25;;;6.90;99.90;;;;;;5130688;27;20046;-80
2022/11/17 05:18:42;;;;;;;9.55;7.22;;;6.90;99.90;;;;;;5130353;27;20053;-79
2022/11/17 05:21:09;;;;;;;10.10;8.48;;;6.90;99.90;;;;;;5130766;27;20050;-79
2022/11/17 05:23:54;;;;;;;10.15;7.57;;;6.80;99.90;;;;;;5113591;27;20063;-78
2022/11/17 05:26:23;;;;;;;9.98;8.02;;;7.40;99.90;;;;;;5130382;27;20047;-81
2022/11/17 05:28:49;;;;;;;9.45;7.57;;;6.80;99.90;;;;;;5130912;27;20051;-82
2022/11/17 05:31:15;;;;;;;9.93;8.15;;;6.80;99.90;;;;;;5130275;27;20053;-81
2022/11/17 05:33:41;;;;;;;11.70;8.80;;;6.80;99.90;;;;;;5130481;27;20115;-81
2022/11/17 05:36:07;;;;;;;11.38;7.45;;;6.80;99.90;;;;;;5113649;27;20385;-81
2022/11/17 05:38:33;;;;;;;9.07;7.45;;;6.80;99.90;;;;;;5130622;27;20042;-81
2022/11/17 05:40:59;;;;;;;8.95;7.90;;;6.80;99.90;;;;;;5113059;27;20047;-80
2022/11/17 05:43:25;;;;;;;8.32;7.32;;;6.80;99.90;;;;;;5129981;27;20043;-81
2022/11/17 05:45:51;;;;;;;9.20;7.60;;;6.80;99.90;;;;;;5129833;27;20092;-81
2022/11/17 05:48:17;;;;;;;8.40;7.30;;;6.80;99.90;;;;;;5112587;27;20489;-81
2022/11/17 05:50:43;;;;;;;15.20;8.07;;;6.70;99.90;;;;;;5130522;27;20451;-80
2022/11/17 05:53:08;;;;;;;8.25;7.00;;;6.80;99.90;;;;;;5112622;27;20050;-80
2022/11/17 05:55:34;;;;;;;8.57;7.00;;;6.70;99.90;;;;;;5129858;27;20039;-80
2022/11/17 05:58:14;;;;;;;9.60;6.80;;;6.70;99.90;;;;;;5130085;27;20083;-81
2022/11/17 06:00:41;;;;;;;9.20;6.75;;;6.70;99.90;;;;;;5129715;27;20047;-77
2022/11/17 06:03:23;;;;;;;7.93;7.13;;;6.70;99.90;;;;;;5129518;27;20078;-80
2022/11/17 06:05:49;;;;;;;8.98;6.72;;;6.70;99.90;;;;;;5129313;27;20038;-80
2022/11/17 06:08:16;;;;;;;8.88;6.50;;;6.70;99.90;;;;;;5095792;27;20103;-80
2022/11/17 06:10:41;;;;;;;7.95;6.40;;;6.70;99.90;;;;;;5112719;27;20035;-80
2022/11/17 06:13:07;;;;;;;9.20;6.50;;;6.70;99.90;;;;;;5095857;27;20545;-80
2022/11/17 06:15:33;;;;;;;7.55;5.70;;;6.70;99.90;;;;;;5095182;27;20038;-79
2022/11/17 06:18:09;;;;;;;7.75;6.40;;;7.80;99.90;;;;;;5112409;27;20586;-82
2022/11/17 06:20:40;;;;;;;7.28;5.80;;;6.60;99.90;;;;;;5112522;27;20047;-81
2022/11/17 06:23:07;;;;;;;10.40;5.97;;;6.60;99.90;;;;;;5129636;27;20070;-80
2022/11/17 06:25:35;;;;;;;7.63;5.35;;;7.50;99.90;;;;;;5129081;27;20067;-80
2022/11/17 06:28:03;;;;;;;8.32;6.25;;;6.60;99.90;;;;;;5129487;27;20062;-80
2022/11/17 06:30:29;;;;;;;7.63;5.18;;;6.60;99.90;;;;;;5111875;27;20244;-80
2022/11/17 06:32:57;;;;;;;7.32;5.45;;;6.60;99.90;;;;;;5128658;27;20042;-81
2022/11/17 06:35:23;;;;;;;7.38;5.68;;;6.60;99.90;;;;;;5129489;27;20100;-81
2022/11/17 06:37:49;;;;;;;8.43;5.60;;;6.60;99.90;;;;;;5112244;27;20406;-81
2022/11/17 06:40:15;;;;;;;6.20;4.75;;;6.60;99.90;;;;;;5112148;27;20046;-81
2022/11/17 06:43:24;;;;;;;6.50;4.90;;;6.70;99.90;;;;;;5129607;27;20038;-81
2022/11/17 06:45:34;;;;;;;7.80;5.30;;;6.60;99.90;;;;;;5120230;27;20050;-81
2022/11/17 06:48:00;;;;;;;7.00;5.55;;;6.60;99.90;;;;;;5111722;27;20111;-81
2022/11/17 06:50:26;;;;;;;6.97;5.13;;;6.60;99.90;;;;;;5128691;27;20082;-81
2022/11/17 06:52:55;;;;;;;7.55;4.80;;;6.60;99.90;;;;;;5128478;27;20034;-81
2022/11/17 06:55:21;;;;;;;5.97;4.93;;;6.60;99.90;;;;;;5128992;27;20669;-81
2022/11/17 06:57:46;;;;;;;5.90;4.90;;;7.40;99.90;;;;;;5128555;27;20396;-81
2022/11/17 07:00:13;;;;;;;8.63;4.97;;;7.10;99.90;;;;;;5111666;27;20126;-81
2022/11/17 07:02:38;;;;;;;7.22;5.13;;;6.60;99.90;;;;;;5111645;27;20039;-81
2022/11/17 07:05:04;;;;;;;8.93;4.95;;;6.50;99.90;;;;;;5128402;27;20046;-81
2022/11/17 07:07:30;;;;;;;7.70;5.03;;;6.60;99.90;;;;;;5129162;27;20091;-81
2022/11/17 07:09:56;;;;;;;7.10;5.45;;;6.50;99.90;;;;;;5128638;27;20489;-81
2022/11/17 07:12:21;;;;;;;6.80;4.80;;;6.60;99.90;;;;;;5111618;27;20135;-81
2022/11/17 07:14:47;;;;;;;7.20;5.18;;;6.50;99.90;;;;;;5112058;27;20445;-80
2022/11/17 07:17:12;;;;;;;7.35;5.45;;;7.10;99.90;;;;;;5111401;27;20130;-81
2022/11/17 07:19:38;;;;;;;6.10;4.75;;;6.50;99.90;;;;;;5076744;27;20043;-79
2022/11/17 07:22:04;;;;;;;6.53;4.68;;;6.50;99.90;;;;;;5128669;27;20038;-79
2022/11/17 07:24:29;;;;;;;6.70;4.88;;;6.50;99.90;;;;;;5127902;27;20541;-79
2022/11/17 07:26:55;;;;;;;7.22;5.03;;;6.50;99.90;;;;;;5127678;27;20042;-79
2022/11/17 07:29:21;;;;;;;5.90;4.90;;;6.50;99.90;;;;;;5110753;27;20042;-79
2022/11/17 07:31:46;;;;;;;12.43;5.10;;;7.40;99.90;;;;;;5127992;27;20038;-79
2022/11/17 07:34:12;;;;;;;9.52;4.47;;;6.60;99.90;;;;;;5128150;27;20078;-79
2022/11/17 07:36:37;;;;;;;7.68;5.10;;;6.60;99.90;;;;;;5128241;27;20134;-79
2022/11/17 07:39:06;;;;;;;6.00;4.90;;;6.60;99.90;;;;;;5110792;27;20127;-79
2022/11/17 07:41:32;;;;;;;7.38;4.22;;;6.60;99.90;;;;;;5110632;27;20050;-80
2022/11/17 07:43:58;;;;;;;5.53;4.43;;;6.80;99.90;;;;;;5110855;27;20195;-79
2022/11/17 07:46:24;;;;;;;4.63;3.58;;;6.60;99.90;;;;;;5110732;27;20552;-79
2022/11/17 07:48:53;;;;;;;5.28;3.90;;;6.60;99.90;;;;;;5110698;27;20049;-79
2022/11/17 07:51:19;;;;;;;5.80;3.83;;;6.60;99.90;;;;;;5127637;27;20046;-78
2022/11/17 07:53:45;;;;;;;5.68;3.90;;;6.60;99.90;;;;;;5127700;27;20047;-79
2022/11/17 07:56:11;;;;;;;5.43;3.78;;;7.50;99.90;;;;;;5110992;27;20035;-78
2022/11/17 07:58:38;;;;;;;6.05;3.85;;;6.70;99.90;;;;;;5127861;27;20414;-78
2022/11/17 08:01:05;;;;;;;6.18;4.03;;;6.60;99.90;;;;;;5127917;27;20058;-79
2022/11/17 08:03:31;;;;;;;4.57;3.60;;;6.60;99.90;;;;;;5146602;27;20053;-79
2022/11/17 08:06:03;;;;;;;5.57;3.40;;;7.00;99.90;;;;;;5127635;27;20447;-79
2022/11/17 08:08:29;;;;;;;4.03;2.20;;;6.60;99.90;;;;;;5127691;27;20047;-79
2022/11/17 08:10:55;;;;;;;5.50;3.80;;;6.60;99.90;;;;;;5127375;27;20053;-79
2022/11/17 08:13:21;;;;;;;5.65;3.63;;;6.60;99.90;;;;;;5111185;27;20038;-80
2022/11/17 08:15:46;;;;;;;4.32;2.83;;;7.70;99.90;;;;;;5128293;27;20046;-79
2022/11/17 08:18:13;;;;;;;4.70;3.45;;;6.60;99.90;;;;;;5128116;27;20478;-79
2022/11/17 08:20:38;;;;;;;4.68;3.42;;;6.60;99.90;;;;;;5127855;27;20474;-79
2022/11/17 08:23:04;;;;;;;5.28;3.42;;;6.60;99.90;;;;;;5093609;27;20050;-78
2022/11/17 08:25:30;;;;;;;4.70;3.40;;;6.60;99.90;;;;;;5123998;28;20481;-78
2022/11/17 08:27:56;;;;;;;4.25;3.35;;;6.60;99.90;;;;;;5106906;28;20049;-79
2022/11/17 08:30:24;;;;;;;4.30;3.25;;;6.60;99.90;;;;;;5090746;28;20076;-79
2022/11/17 08:32:51;;;;;;;4.93;3.58;;;6.50;99.90;;;;;;5107340;28;20044;-78
2022/11/17 08:35:19;;;;;;;5.90;3.03;;;6.60;99.90;;;;;;5124112;28;20050;-78
2022/11/17 08:37:44;;;;;;;5.65;3.83;;;6.60;99.90;;;;;;5124439;28;20508;-78
2022/11/17 08:40:11;;;;;;;8.77;4.15;;;6.60;99.90;;;;;;5124564;28;20047;-78
2022/11/17 08:42:37;;;;;;;5.57;3.13;;;6.60;99.90;;;;;;5124808;28;20448;-78
2022/11/17 08:45:04;;;;;;;4.85;3.38;;;6.60;99.90;;;;;;5107008;28;20043;-78
2022/11/17 08:47:30;;;;;;;5.18;3.47;;;6.60;99.90;;;;;;5124316;28;20557;-80
2022/11/17 08:49:56;;;;;;;6.53;3.60;;;6.60;99.90;;;;;;5107744;27;20130;-78
2022/11/17 08:52:21;;;;;;;3.85;3.15;;;6.60;99.90;;;;;;5127823;27;20039;-78
2022/11/17 08:54:47;;;;;;;4.03;3.30;;;6.60;99.90;;;;;;5127884;27;20035;-79
2022/11/17 08:57:13;;;;;;;5.53;3.63;;;6.60;99.90;;;;;;5128052;27;20043;-78
2022/11/17 08:59:38;;;;;;;14.35;4.68;;;6.60;99.90;;;;;;5110971;27;20513;-78
2022/11/17 09:02:04;;;;;;;6.18;3.78;;;6.60;99.90;;;;;;5110785;27;20074;-78
2022/11/17 09:04:30;;;;;;;4.93;3.75;;;6.60;99.90;;;;;;5110502;27;20058;-84
2022/11/17 09:06:55;;;;;;;5.32;4.28;;;6.60;99.90;;;;;;5110503;27;20127;-78
2022/11/17 09:09:21;;;;;;;8.35;4.28;;;6.60;99.90;;;;;;5128959;27;20043;-79
2022/11/17 09:11:47;;;;;;;8.55;4.60;;;6.70;99.90;;;;;;5093543;27;20051;-78
2022/11/17 09:14:13;;;;;;;4.43;3.83;;;6.70;99.90;;;;;;5127333;27;20073;-82
2022/11/17 09:16:38;;;;;;;5.45;4.68;;;6.70;99.90;;;;;;5110059;27;20054;-83
2022/11/17 09:19:04;;;;;;;7.47;4.32;;;6.70;99.90;;;;;;5110078;27;20107;-83
2022/11/17 09:21:32;;;;;;;5.25;4.28;;;7.80;99.90;;;;;;5109999;27;20043;-81
2022/11/17 09:23:58;;;;;;;5.57;3.80;;;6.70;99.90;;;;;;5127134;27;20490;-77
2022/11/17 09:26:23;;;;;;;5.15;4.10;;;6.70;99.90;;;;;;5127105;27;20051;-77
2022/11/17 09:28:49;;;;;;;5.60;4.15;;;6.70;99.90;;;;;;5127031;27;20043;-78
2022/11/17 09:31:17;;;;;;;5.53;4.10;;;6.70;99.90;;;;;;5127230;27;20114;-78
2022/11/17 09:33:44;;;;;;;7.13;3.65;;;7.30;99.90;;;;;;5127054;27;20050;-77
2022/11/17 09:36:11;;;;;;;6.25;3.85;;;6.70;99.90;;;;;;5110087;27;20047;-77
2022/11/17 09:38:37;;;;;;;5.70;3.53;;;6.70;99.90;;;;;;5127366;27;20142;-78
2022/11/17 09:41:15;;;;;;;4.78;3.70;;;6.70;99.90;;;;;;5109864;27;20407;-78
2022/11/17 09:44:05;;;;;;;6.53;3.88;;;6.70;99.90;;;;;;5126554;27;20596;-78
2022/11/17 09:47:11;;;;;;;5.05;4.25;;;6.70;99.90;;;;;;5126591;27;20051;-78
2022/11/17 09:50:01;;;;;;;6.75;3.63;;;6.80;99.90;;;;;;5127062;27;20504;-78
2022/11/17 09:53:03;;;;;;;6.72;4.22;;;6.70;99.90;;;;;;5128100;27;20141;-78
2022/11/17 09:55:54;;;;;;;4.80;3.92;;;6.80;99.90;;;;;;5126950;27;20047;-78
2022/11/17 09:58:54;;;;;;;6.53;3.75;;;7.30;99.90;;;;;;5114840;27;20476;-78
2022/11/17 10:01:21;;;;;;;6.90;4.00;;;6.80;99.90;;;;;;5125519;27;20054;-78
2022/11/17 10:03:50;;;;;;;4.38;3.53;;;6.80;99.90;;;;;;5126156;27;20047;-78
2022/11/17 10:06:20;;;;;;;4.32;3.88;;;6.80;99.90;;;;;;5126525;27;20126;-77
2022/11/17 10:09:00;;;;;;;7.65;4.05;;;6.80;99.90;;;;;;5126337;27;20089;-77
2022/11/17 10:11:32;;;;;;;6.18;4.40;;;6.80;99.90;;;;;;5126078;27;20051;-77
2022/11/17 10:14:07;;;;;;;5.68;4.35;;;6.80;99.90;;;;;;5126011;27;20043;-77
2022/11/17 10:16:34;;;;;;;6.13;4.22;;;6.80;99.90;;;;;;5127372;27;20040;-77
2022/11/17 10:19:19;;;;;;;6.00;4.28;;;6.80;99.90;;;;;;5127092;27;20039;-77
2022/11/17 10:22:05;;;;;;;4.63;3.63;;;7.20;99.90;;;;;;5125874;27;20606;-78
2022/11/17 10:24:35;;;;;;;6.18;4.18;;;6.80;99.90;;;;;;5125949;27;20155;-78
2022/11/17 10:27:22;;;;;;;4.82;4.00;;;6.80;99.90;;;;;;5129098;27;20343;-82
2022/11/17 10:30:02;;;;;;;5.70;4.60;;;6.80;99.90;;;;;;5111760;27;20099;-78
2022/11/17 10:32:30;;;;;;;4.97;3.97;;;6.80;99.90;;;;;;5129145;27;20057;-78
2022/11/17 10:35:21;;;;;;;4.60;3.80;;;6.80;99.90;;;;;;5129016;27;20043;-78
2022/11/17 10:37:58;;;;;;;9.30;4.22;;;6.80;99.90;;;;;;5129035;27;20557;-78
2022/11/17 10:40:29;;;;;;;5.05;3.50;;;6.80;99.90;;;;;;5111676;27;20038;-77
2022/11/17 10:42:59;;;;;;;5.35;3.92;;;6.80;99.90;;;;;;5129102;27;20130;-78
2022/11/17 10:45:25;;;;;;;5.05;4.22;;;6.80;99.90;;;;;;5111726;27;20049;-78
2022/11/17 10:47:51;;;;;;;5.78;3.70;;;6.80;99.90;;;;;;5128619;27;20121;-78
2022/11/17 10:50:28;;;;;;;5.35;4.20;;;6.80;99.90;;;;;;5129125;27;20055;-77
2022/11/17 10:53:15;;;;;;;8.02;4.70;;;6.90;99.90;;;;;;5129063;27;20545;-78
2022/11/17 10:55:42;;;;;;;4.18;3.67;;;6.90;99.90;;;;;;5147004;27;20111;-77
2022/11/17 10:58:17;;;;;;;5.18;3.80;;;6.90;99.90;;;;;;5128693;27;20045;-78
2022/11/17 11:00:50;;;;;;;6.72;4.03;;;6.90;99.90;;;;;;5128311;27;20186;-78
2022/11/17 11:03:23;;;;;;;5.07;3.70;;;7.40;99.90;;;;;;5111418;27;20122;-78
2022/11/17 11:05:59;;;;;;;5.03;3.38;;;6.80;99.90;;;;;;5128472;27;20131;-78
2022/11/17 11:08:45;;;;;;;7.10;4.65;;;6.80;99.90;;;;;;5111335;27;20047;-78
2022/11/17 11:11:58;;;;;;;5.43;3.97;;;6.80;99.90;;;;;;5093851;27;20051;-78
2022/11/17 11:14:52;;;;;;;7.80;4.03;;;6.80;99.90;;;;;;5108359;27;20441;-78
2022/11/17 11:17:19;;;;;;;5.28;4.15;;;6.70;99.90;;;;;;5125234;27;20077;-78
2022/11/17 11:19:52;;;;;;;5.97;4.50;;;6.70;99.90;;;;;;5077536;27;20545;-78
2022/11/17 11:23:03;;;;;;;6.80;4.57;;;6.70;99.90;;;;;;5111366;27;20500;-78
2022/11/17 11:25:42;;;;;;;5.70;4.63;;;6.70;99.90;;;;;;5127975;27;20069;-78
2022/11/17 11:28:19;;;;;;;5.43;4.80;;;6.70;99.90;;;;;;5128208;27;20478;-78
2022/11/17 11:31:15;;;;;;;5.28;4.10;;;6.70;99.90;;;;;;5127983;27;20129;-79
2022/11/17 11:33:49;;;;;;;5.80;4.93;;;6.70;99.90;;;;;;5127909;27;20568;-78
2022/11/17 11:36:55;;;;;;;6.40;4.80;;;6.80;99.90;;;;;;5128047;27;20481;-79
2022/11/17 11:39:41;;;;;;;7.30;5.22;;;6.80;99.90;;;;;;5025321;28;20045;-78
2022/11/17 11:42:23;;;;;;;5.90;4.57;;;6.80;99.90;;;;;;5106801;27;20089;-78
2022/11/17 11:44:57;;;;;;;6.68;4.78;;;6.80;99.90;;;;;;5128084;27;20096;-79
2022/11/17 11:47:47;;;;;;;5.20;4.55;;;6.80;99.90;;;;;;5127951;27;20047;-80
2022/11/17 11:50:19;;;;;;;8.65;5.55;;;6.70;99.90;;;;;;5128232;27;20487;-79
2022/11/17 11:52:55;;;;;;;5.85;4.28;;;6.80;99.90;;;;;;5110801;27;20042;-79
2022/11/17 11:55:32;;;;;;;7.05;5.70;;;6.80;99.90;;;;;;5110659;27;20047;-79
2022/11/17 11:58:12;;;;;;;7.85;5.25;;;6.80;99.90;;;;;;5128057;27;20385;-78
2022/11/17 12:00:40;;;;;;;7.57;5.45;;;6.80;99.90;;;;;;5110455;27;20046;-79
2022/11/17 12:03:21;;;;;;;6.15;5.47;;;6.80;99.90;;;;;;5110600;27;20045;-79
2022/11/17 12:09:11;;;;;;;7.63;5.40;;;6.80;99.90;;;;;;5128145;27;20215;-79
2022/11/17 12:11:59;;;;;;;6.90;5.88;;;6.90;99.90;;;;;;5059039;27;20043;-79
2022/11/17 12:14:29;;;;;;;6.90;5.60;;;7.80;99.90;;;;;;5096481;27;20043;-79
2022/11/17 12:17:01;;;;;;;6.88;5.63;;;6.90;99.90;;;;;;5110735;27;20039;-79
2022/11/17 12:19:49;;;;;;;6.63;5.47;;;6.90;99.90;;;;;;5128097;27;20100;-79
2022/11/17 12:22:31;;;;;;;11.02;5.78;;;6.90;99.90;;;;;;5110354;27;20039;-78
2022/11/17 12:25:18;;;;;;;6.95;5.80;;;6.90;99.90;;;;;;5111060;27;20062;-78
2022/11/17 12:27:49;;;;;;;7.05;5.45;;;6.90;99.90;;;;;;5114225;27;20175;-78
2022/11/17 12:30:32;;;;;;;7.65;5.05;;;6.90;99.90;;;;;;5114477;27;20085;-79
2022/11/17 12:33:00;;;;;;;6.07;4.88;;;6.90;99.90;;;;;;5131943;27;20058;-79
2022/11/17 12:35:30;;;;;;;6.32;4.93;;;6.90;99.90;;;;;;5131956;27;20096;-79
2022/11/17 12:38:14;;;;;;;7.00;5.72;;;6.90;99.90;;;;;;5131355;27;20053;-80
2022/11/17 12:40:46;;;;;;;7.50;5.65;;;6.90;99.90;;;;;;5131097;27;20064;-79
2022/11/17 12:43:17;;;;;;;4.75;3.78;;;6.90;99.90;;;;;;5131301;27;20088;-79
2022/11/17 12:45:52;;;;;;;6.25;5.07;;;6.90;99.90;;;;;;5114189;27;20103;-80
2022/11/17 12:48:37;;;;;;;8.23;5.57;;;6.90;99.90;;;;;;5114516;27;20405;-79
2022/11/17 12:51:16;;;;;;;9.15;5.25;;;6.90;99.90;;;;;;5114139;27;20224;-79
2022/11/17 12:53:48;;;;;;;7.00;5.32;;;7.00;99.90;;;;;;5131188;27;20043;-79
2022/11/17 12:56:27;;;;;;;6.63;4.88;;;7.00;99.90;;;;;;5114007;27;20093;-79
2022/11/17 12:59:20;;;;;;;6.55;5.20;;;7.00;99.90;;;;;;5114126;27;20126;-79
2022/11/17 13:02:06;;;;;;;;;;;7.00;99.90;;;;;;5114598;27;20493;-79
2022/11/17 13:04:39;;;;;;;7.90;4.80;;;7.00;99.90;;;;;;5129953;27;19919;-79
2022/11/17 13:07:21;;;;;;;6.25;4.80;;;7.00;99.90;;;;;;5131740;27;20050;-79
2022/11/17 13:09:58;;;;;;;5.65;4.57;;;7.00;99.90;;;;;;5130932;27;20046;-79
2022/11/17 13:12:26;;;;;;;6.00;4.90;;;7.00;99.90;;;;;;5114018;27;20058;-79
2022/11/17 13:14:54;;;;;;;7.85;4.85;;;7.00;99.90;;;;;;5130682;27;20524;-79
2022/11/17 13:17:41;;;;;;;6.80;5.20;;;7.50;99.90;;;;;;5114201;27;20393;-79
2022/11/17 13:20:21;;;;;;;6.07;5.07;;;7.10;99.90;;;;;;5130962;27;20045;-79
2022/11/17 13:23:01;;;;;;;7.30;4.68;;;7.10;99.90;;;;;;5130640;27;20500;-79
2022/11/17 13:25:27;;;;;;;5.60;4.82;;;7.10;99.90;;;;;;5113258;27;20577;-79
2022/11/17 13:27:53;;;;;;;6.53;4.22;;;7.20;99.90;;;;;;5130598;27;20238;-79
2022/11/17 13:30:24;;;;;;;4.82;3.85;;;7.20;99.90;;;;;;5096187;27;20346;-79
2022/11/17 13:32:50;;;;;;;5.15;4.65;;;7.20;99.90;;;;;;5130514;27;20550;-79
2022/11/17 13:35:29;;;;;;;6.22;5.07;;;7.20;99.90;;;;;;5130525;27;20416;-79
2022/11/17 13:38:01;;;;;;;5.00;4.50;;;7.20;99.90;;;;;;5128860;27;20046;-79
2022/11/17 13:40:27;;;;;;;6.97;4.72;;;7.20;99.90;;;;;;5129953;27;20485;-80
2022/11/17 13:42:53;;;;;;;5.50;4.80;;;7.20;99.90;;;;;;5130353;27;20046;-79
2022/11/17 13:45:19;;;;;;;6.00;4.78;;;7.20;99.90;;;;;;5113085;27;20039;-79
2022/11/17 13:47:48;;;;;;;6.40;4.88;;;7.50;99.90;;;;;;5096165;27;20050;-80
2022/11/17 13:50:33;;;;;;;7.82;4.85;;;7.30;99.90;;;;;;5130440;27;20440;-80